sensor_id;sensor_type;location;lat;lon;timestamp;pressure;altitude;pressure_sealevel;temperature;humidity
39265;BME280;42646;51.910;7.724;2023-01-25T00:01:03;103109.84;;;0.83;97.15
39265;BME280;42646;51.910;7.724;2023-01-25T00:03:33;103107.25;;;0.81;97.57
39265;BME280;42646;51.910;7.724;2023-01-25T00:06:00;103106.38;;;0.84;97.58
39265;BME280;42646;51.910;7.724;2023-01-25T00:08:28;103106.38;;;0.82;97.31
39265;BME280;42646;51.910;7.724;2023-01-25T00:10:56;103098.56;;;0.79;97.70
39265;BME280;42646;51.910;7.724;2023-01-25T00:13:24;103103.78;;;0.80;97.42
39265;BME280;42646;51.910;7.724;2023-01-25T00:15:52;103088.09;;;0.77;97.65
39265;BME280;42646;51.910;7.724;2023-01-25T00:18:21;103084.59;;;0.78;97.80
39265;BME280;42646;51.910;7.724;2023-01-25T00:20:49;103075.84;;;0.79;97.63
39265;BME280;42646;51.910;7.724;2023-01-25T00:23:16;103068.91;;;0.75;97.16
39265;BME280;42646;51.910;7.724;2023-01-25T00:25:44;103068.94;;;0.72;97.08
39265;BME280;42646;51.910;7.724;2023-01-25T00:28:15;103070.69;;;0.72;97.18
39265;BME280;42646;51.910;7.724;2023-01-25T00:30:43;103069.81;;;0.73;96.71
39265;BME280;42646;51.910;7.724;2023-01-25T00:36:38;103062.00;;;0.68;97.19
39265;BME280;42646;51.910;7.724;2023-01-25T00:39:11;103057.63;;;0.67;97.29
39265;BME280;42646;51.910;7.724;2023-01-25T00:41:39;103052.41;;;0.66;97.49
39265;BME280;42646;51.910;7.724;2023-01-25T00:44:07;103059.38;;;0.68;97.73
39265;BME280;42646;51.910;7.724;2023-01-25T00:46:35;103049.81;;;0.66;97.79
39265;BME280;42646;51.910;7.724;2023-01-25T00:49:05;103051.53;;;0.67;97.62
39265;BME280;42646;51.910;7.724;2023-01-25T00:51:34;103055.91;;;0.65;97.75
39265;BME280;42646;51.910;7.724;2023-01-25T00:54:01;103055.06;;;0.63;97.63
39265;BME280;42646;51.910;7.724;2023-01-25T00:56:29;103055.03;;;0.64;97.92
39265;BME280;42646;51.910;7.724;2023-01-25T00:58:57;103056.78;;;0.67;97.94
39265;BME280;42646;51.910;7.724;2023-01-25T01:01:24;103055.91;;;0.66;97.93
39265;BME280;42646;51.910;7.724;2023-01-25T01:03:52;103059.38;;;0.67;97.93
39265;BME280;42646;51.910;7.724;2023-01-25T01:06:20;103056.78;;;0.67;97.93
39265;BME280;42646;51.910;7.724;2023-01-25T01:08:49;103048.91;;;0.67;98.01
39265;BME280;42646;51.910;7.724;2023-01-25T01:11:17;103053.25;;;0.69;97.85
39265;BME280;42646;51.910;7.724;2023-01-25T01:13:44;103047.94;;;0.75;97.83
39265;BME280;42646;51.910;7.724;2023-01-25T01:16:12;103043.59;;;0.73;97.56
39265;BME280;42646;51.910;7.724;2023-01-25T01:18:42;103039.31;;;0.66;97.80
39265;BME280;42646;51.910;7.724;2023-01-25T01:21:12;103039.31;;;0.64;98.22
39265;BME280;42646;51.910;7.724;2023-01-25T01:23:40;103046.31;;;0.64;98.30
39265;BME280;42646;51.910;7.724;2023-01-25T01:26:13;103045.41;;;0.65;98.28
39265;BME280;42646;51.910;7.724;2023-01-25T01:28:41;103048.03;;;0.68;98.43
39265;BME280;42646;51.910;7.724;2023-01-25T01:31:11;103045.41;;;0.68;97.65
39265;BME280;42646;51.910;7.724;2023-01-25T01:33:47;103040.19;;;0.66;97.61
39265;BME280;42646;51.910;7.724;2023-01-25T01:36:16;103041.94;;;0.66;97.11
39265;BME280;42646;51.910;7.724;2023-01-25T01:38:44;103042.91;;;0.56;97.76
39265;BME280;42646;51.910;7.724;2023-01-25T01:41:14;103048.19;;;0.54;97.80
39265;BME280;42646;51.910;7.724;2023-01-25T01:43:44;103042.94;;;0.54;97.98
39265;BME280;42646;51.910;7.724;2023-01-25T01:46:14;103041.16;;;0.56;98.07
39265;BME280;42646;51.910;7.724;2023-01-25T01:48:46;103035.94;;;0.53;98.27
39265;BME280;42646;51.910;7.724;2023-01-25T01:51:16;103047.31;;;0.53;98.49
39265;BME280;42646;51.910;7.724;2023-01-25T01:53:50;103039.44;;;0.52;98.65
39265;BME280;42646;51.910;7.724;2023-01-25T01:56:25;103053.41;;;0.52;98.56
39265;BME280;42646;51.910;7.724;2023-01-25T01:58:57;103036.81;;;0.55;98.42
39265;BME280;42646;51.910;7.724;2023-01-25T02:01:26;103038.53;;;0.56;98.89
39265;BME280;42646;51.910;7.724;2023-01-25T02:03:54;103033.13;;;0.73;97.92
39265;BME280;42646;51.910;7.724;2023-01-25T02:06:27;103033.25;;;0.59;97.87
39265;BME280;42646;51.910;7.724;2023-01-25T02:08:59;103034.25;;;0.49;98.63
39265;BME280;42646;51.910;7.724;2023-01-25T02:11:29;103031.59;;;0.50;99.01
39265;BME280;42646;51.910;7.724;2023-01-25T02:13:59;103032.47;;;0.51;99.21
39265;BME280;42646;51.910;7.724;2023-01-25T02:16:30;103025.53;;;0.48;99.33
39265;BME280;42646;51.910;7.724;2023-01-25T02:19:02;103038.59;;;0.50;99.29
39265;BME280;42646;51.910;7.724;2023-01-25T02:21:34;103036.81;;;0.52;99.38
39265;BME280;42646;51.910;7.724;2023-01-25T02:24:10;103035.13;;;0.48;99.03
39265;BME280;42646;51.910;7.724;2023-01-25T02:26:40;103043.84;;;0.47;99.31
39265;BME280;42646;51.910;7.724;2023-01-25T02:29:08;103041.22;;;0.50;99.08
39265;BME280;42646;51.910;7.724;2023-01-25T02:31:36;103048.22;;;0.48;99.07
39265;BME280;42646;51.910;7.724;2023-01-25T02:34:04;103039.50;;;0.49;99.03
39265;BME280;42646;51.910;7.724;2023-01-25T02:36:33;103037.72;;;0.51;99.24
39265;BME280;42646;51.910;7.724;2023-01-25T02:39:04;103031.59;;;0.53;98.86
39265;BME280;42646;51.910;7.724;2023-01-25T02:41:36;103034.25;;;0.49;99.18
39265;BME280;42646;51.910;7.724;2023-01-25T02:44:31;103040.34;;;0.51;99.13
39265;BME280;42646;51.910;7.724;2023-01-25T02:47:02;103035.09;;;0.51;99.25
39265;BME280;42646;51.910;7.724;2023-01-25T02:49:30;103038.56;;;0.53;99.06
39265;BME280;42646;51.910;7.724;2023-01-25T02:51:57;103032.47;;;0.51;99.17
39265;BME280;42646;51.910;7.724;2023-01-25T02:54:25;103028.97;;;0.52;98.96
39265;BME280;42646;51.910;7.724;2023-01-25T02:56:53;103017.66;;;0.50;98.79
39265;BME280;42646;51.910;7.724;2023-01-25T02:59:34;103017.66;;;0.50;99.10
39265;BME280;42646;51.910;7.724;2023-01-25T03:02:03;103014.22;;;0.45;98.87
39265;BME280;42646;51.910;7.724;2023-01-25T03:04:31;103015.09;;;0.44;99.55
39265;BME280;42646;51.910;7.724;2023-01-25T03:06:58;103004.63;;;0.41;99.52
39265;BME280;42646;51.910;7.724;2023-01-25T03:09:27;102996.78;;;0.42;99.84
39265;BME280;42646;51.910;7.724;2023-01-25T03:11:55;102999.41;;;0.42;99.86
39265;BME280;42646;51.910;7.724;2023-01-25T03:14:23;102996.84;;;0.38;100.00
39265;BME280;42646;51.910;7.724;2023-01-25T03:16:52;102998.53;;;0.40;100.00
39265;BME280;42646;51.910;7.724;2023-01-25T03:19:22;102997.53;;;0.52;100.00
39265;BME280;42646;51.910;7.724;2023-01-25T03:21:50;102991.50;;;0.45;100.00
39265;BME280;42646;51.910;7.724;2023-01-25T03:24:18;102981.09;;;0.39;100.00
39265;BME280;42646;51.910;7.724;2023-01-25T03:26:49;102978.50;;;0.38;100.00
39265;BME280;42646;51.910;7.724;2023-01-25T03:29:42;102973.25;;;0.39;100.00
39265;BME280;42646;51.910;7.724;2023-01-25T03:32:16;102977.59;;;0.40;100.00
39265;BME280;42646;51.910;7.724;2023-01-25T03:34:44;102971.47;;;0.41;100.00
39265;BME280;42646;51.910;7.724;2023-01-25T03:37:13;102975.81;;;0.44;100.00
39265;BME280;42646;51.910;7.724;2023-01-25T03:39:43;102967.91;;;0.48;100.00
39265;BME280;42646;51.910;7.724;2023-01-25T03:42:11;102963.53;;;0.50;100.00
39265;BME280;42646;51.910;7.724;2023-01-25T03:44:38;102959.19;;;0.46;100.00
39265;BME280;42646;51.910;7.724;2023-01-25T03:47:06;102952.28;;;0.41;100.00
39265;BME280;42646;51.910;7.724;2023-01-25T03:49:35;102954.91;;;0.39;100.00
39265;BME280;42646;51.910;7.724;2023-01-25T03:52:04;102947.91;;;0.41;100.00
39265;BME280;42646;51.910;7.724;2023-01-25T03:54:37;102948.75;;;0.45;100.00
39265;BME280;42646;51.910;7.724;2023-01-25T03:57:07;102929.56;;;0.43;100.00
39265;BME280;42646;51.910;7.724;2023-01-25T03:59:47;102936.53;;;0.44;100.00
39265;BME280;42646;51.910;7.724;2023-01-25T04:02:15;102927.72;;;0.51;100.00
39265;BME280;42646;51.910;7.724;2023-01-25T04:04:45;102928.66;;;0.45;100.00
39265;BME280;42646;51.910;7.724;2023-01-25T04:07:15;102919.94;;;0.45;100.00
39265;BME280;42646;51.910;7.724;2023-01-25T04:09:44;102925.22;;;0.40;100.00
39265;BME280;42646;51.910;7.724;2023-01-25T04:12:12;102920.88;;;0.39;100.00
39265;BME280;42646;51.910;7.724;2023-01-25T04:14:41;102914.72;;;0.43;100.00
39265;BME280;42646;51.910;7.724;2023-01-25T04:17:17;102912.84;;;0.53;100.00
39265;BME280;42646;51.910;7.724;2023-01-25T04:19:53;102906.84;;;0.48;100.00
39265;BME280;42646;51.910;7.724;2023-01-25T04:22:25;102907.00;;;0.33;100.00
39265;BME280;42646;51.910;7.724;2023-01-25T04:24:58;102903.50;;;0.32;100.00
39265;BME280;42646;51.910;7.724;2023-01-25T04:27:27;102906.97;;;0.34;100.00
39265;BME280;42646;51.910;7.724;2023-01-25T04:30:04;102897.41;;;0.32;100.00
39265;BME280;42646;51.910;7.724;2023-01-25T04:32:35;102900.81;;;0.38;100.00
39265;BME280;42646;51.910;7.724;2023-01-25T04:35:16;102893.91;;;0.33;100.00
39265;BME280;42646;51.910;7.724;2023-01-25T04:37:52;102897.38;;;0.36;100.00
39265;BME280;42646;51.910;7.724;2023-01-25T04:40:47;102895.72;;;0.28;100.00
39265;BME280;42646;51.910;7.724;2023-01-25T04:43:16;102896.56;;;0.28;100.00
39265;BME280;42646;51.910;7.724;2023-01-25T04:45:48;102899.22;;;0.26;100.00
39265;BME280;42646;51.910;7.724;2023-01-25T04:48:25;102905.34;;;0.25;100.00
39265;BME280;42646;51.910;7.724;2023-01-25T04:50:59;102910.59;;;0.22;100.00
39265;BME280;42646;51.910;7.724;2023-01-25T04:53:26;102904.47;;;0.25;100.00
39265;BME280;42646;51.910;7.724;2023-01-25T04:55:58;102905.28;;;0.29;100.00
39265;BME280;42646;51.910;7.724;2023-01-25T04:58:30;102908.84;;;0.23;100.00
39265;BME280;42646;51.910;7.724;2023-01-25T05:00:59;102905.28;;;0.30;100.00
39265;BME280;42646;51.910;7.724;2023-01-25T05:03:31;102912.44;;;0.14;100.00
39265;BME280;42646;51.910;7.724;2023-01-25T05:06:03;102902.03;;;0.08;100.00
39265;BME280;42646;51.910;7.724;2023-01-25T05:08:32;102904.66;;;0.08;100.00
39265;BME280;42646;51.910;7.724;2023-01-25T05:11:01;102905.47;;;0.10;100.00
39265;BME280;42646;51.910;7.724;2023-01-25T05:13:59;102908.97;;;0.12;100.00
39265;BME280;42646;51.910;7.724;2023-01-25T05:16:31;102911.56;;;0.14;100.00
39265;BME280;42646;51.910;7.724;2023-01-25T05:19:01;102917.56;;;0.22;100.00
39265;BME280;42646;51.910;7.724;2023-01-25T05:21:42;102911.53;;;0.18;100.00
39265;BME280;42646;51.910;7.724;2023-01-25T05:24:32;102905.56;;;0.04;100.00
39265;BME280;42646;51.910;7.724;2023-01-25T05:27:03;102907.31;;;0.02;100.00
39265;BME280;42646;51.910;7.724;2023-01-25T05:29:51;102906.41;;;0.05;100.00
39265;BME280;42646;51.910;7.724;2023-01-25T05:32:22;102904.66;;;0.07;100.00
39265;BME280;42646;51.910;7.724;2023-01-25T05:34:51;102900.28;;;0.06;100.00
39265;BME280;42646;51.910;7.724;2023-01-25T05:37:22;102900.28;;;0.06;100.00
39265;BME280;42646;51.910;7.724;2023-01-25T05:40:06;102897.69;;;0.06;100.00
39265;BME280;42646;51.910;7.724;2023-01-25T05:42:36;102895.97;;;0.03;100.00
39265;BME280;42646;51.910;7.724;2023-01-25T05:45:10;102895.09;;;0.04;100.00
39265;BME280;42646;51.910;7.724;2023-01-25T05:47:38;102896.81;;;0.07;100.00
39265;BME280;42646;51.910;7.724;2023-01-25T05:50:07;102902.03;;;0.05;100.00
39265;BME280;42646;51.910;7.724;2023-01-25T05:52:49;102895.97;;;0.06;100.00
39265;BME280;42646;51.910;7.724;2023-01-25T05:55:17;102895.06;;;0.07;100.00
39265;BME280;42646;51.910;7.724;2023-01-25T05:57:46;102903.78;;;0.08;100.00
39265;BME280;42646;51.910;7.724;2023-01-25T06:00:17;102895.94;;;0.08;100.00
39265;BME280;42646;51.910;7.724;2023-01-25T06:02:44;102895.88;;;0.11;100.00
39265;BME280;42646;51.910;7.724;2023-01-25T06:05:17;102896.81;;;0.05;100.00
39265;BME280;42646;51.910;7.724;2023-01-25T06:07:45;102900.31;;;0.04;100.00
39265;BME280;42646;51.910;7.724;2023-01-25T06:10:15;102895.94;;;0.05;100.00
39265;BME280;42646;51.910;7.724;2023-01-25T06:12:45;102896.81;;;0.07;100.00
39265;BME280;42646;51.910;7.724;2023-01-25T06:15:12;102891.59;;;0.07;100.00
39265;BME280;42646;51.910;7.724;2023-01-25T06:17:41;102895.94;;;0.08;100.00
39265;BME280;42646;51.910;7.724;2023-01-25T06:20:38;102894.19;;;0.05;100.00
39265;BME280;42646;51.910;7.724;2023-01-25T06:23:06;102905.56;;;0.04;100.00
39265;BME280;42646;51.910;7.724;2023-01-25T06:25:35;102901.19;;;0.05;100.00
39265;BME280;42646;51.910;7.724;2023-01-25T06:28:03;102894.22;;;0.04;100.00
39265;BME280;42646;51.910;7.724;2023-01-25T06:30:31;102898.56;;;0.05;100.00
39265;BME280;42646;51.910;7.724;2023-01-25T06:32:59;102902.97;;;0.01;100.00
39265;BME280;42646;51.910;7.724;2023-01-25T06:35:27;102901.28;;;-0.03;100.00
39265;BME280;42646;51.910;7.724;2023-01-25T06:37:58;102901.28;;;-0.06;100.00
39265;BME280;42646;51.910;7.724;2023-01-25T06:40:27;102901.31;;;-0.09;100.00
39265;BME280;42646;51.910;7.724;2023-01-25T06:43:05;102897.84;;;-0.10;100.00
39265;BME280;42646;51.910;7.724;2023-01-25T06:45:35;102909.19;;;-0.09;100.00
39265;BME280;42646;51.910;7.724;2023-01-25T06:48:03;102897.88;;;-0.11;100.00
39265;BME280;42646;51.910;7.724;2023-01-25T06:50:34;102903.13;;;-0.14;100.00
39265;BME280;42646;51.910;7.724;2023-01-25T06:53:03;102903.13;;;-0.16;100.00
39265;BME280;42646;51.910;7.724;2023-01-25T06:55:33;102903.16;;;-0.19;100.00
39265;BME280;42646;51.910;7.724;2023-01-25T06:58:00;102897.09;;;-0.21;100.00
39265;BME280;42646;51.910;7.724;2023-01-25T07:00:29;102898.00;;;-0.23;100.00
39265;BME280;42646;51.910;7.724;2023-01-25T07:02:59;102898.00;;;-0.27;100.00
39265;BME280;42646;51.910;7.724;2023-01-25T07:05:27;102896.25;;;-0.26;100.00
39265;BME280;42646;51.910;7.724;2023-01-25T07:07:56;102892.75;;;-0.25;100.00
39265;BME280;42646;51.910;7.724;2023-01-25T07:10:24;102887.53;;;-0.23;100.00
39265;BME280;42646;51.910;7.724;2023-01-25T07:12:52;102888.38;;;-0.24;100.00
39265;BME280;42646;51.910;7.724;2023-01-25T07:15:20;102891.00;;;-0.24;100.00
39265;BME280;42646;51.910;7.724;2023-01-25T07:17:49;102895.38;;;-0.23;100.00
39265;BME280;42646;51.910;7.724;2023-01-25T07:20:16;102889.25;;;-0.22;100.00
39265;BME280;42646;51.910;7.724;2023-01-25T07:22:45;102891.88;;;-0.22;100.00
39265;BME280;42646;51.910;7.724;2023-01-25T07:25:14;102891.81;;;-0.19;100.00
39265;BME280;42646;51.910;7.724;2023-01-25T07:27:41;102884.00;;;-0.24;100.00
39265;BME280;42646;51.910;7.724;2023-01-25T07:30:10;102889.28;;;-0.25;100.00
39265;BME280;42646;51.910;7.724;2023-01-25T07:32:38;102891.03;;;-0.26;100.00
39265;BME280;42646;51.910;7.724;2023-01-25T07:35:07;102889.28;;;-0.27;100.00
39265;BME280;42646;51.910;7.724;2023-01-25T07:37:37;102885.78;;;-0.26;100.00
39265;BME280;42646;51.910;7.724;2023-01-25T07:40:06;102891.91;;;-0.27;100.00
39265;BME280;42646;51.910;7.724;2023-01-25T07:42:34;102884.94;;;-0.27;100.00
39265;BME280;42646;51.910;7.724;2023-01-25T07:45:10;102877.09;;;-0.28;100.00
39265;BME280;42646;51.910;7.724;2023-01-25T07:47:39;102877.97;;;-0.28;100.00
39265;BME280;42646;51.910;7.724;2023-01-25T07:50:09;102880.53;;;-0.24;100.00
39265;BME280;42646;51.910;7.724;2023-01-25T07:52:38;102866.59;;;-0.25;100.00
39265;BME280;42646;51.910;7.724;2023-01-25T07:55:07;102867.34;;;-0.14;100.00
39265;BME280;42646;51.910;7.724;2023-01-25T07:57:39;102869.09;;;-0.14;100.00
39265;BME280;42646;51.910;7.724;2023-01-25T08:00:08;102867.53;;;-0.32;100.00
39265;BME280;42646;51.910;7.724;2023-01-25T08:02:39;102874.50;;;-0.31;100.00
39265;BME280;42646;51.910;7.724;2023-01-25T08:05:10;102870.25;;;-0.43;100.00
39265;BME280;42646;51.910;7.724;2023-01-25T08:07:37;102872.03;;;-0.48;100.00
39265;BME280;42646;51.910;7.724;2023-01-25T08:10:30;102879.91;;;-0.49;100.00
39265;BME280;42646;51.910;7.724;2023-01-25T08:12:59;102870.28;;;-0.46;100.00
39265;BME280;42646;51.910;7.724;2023-01-25T08:15:27;102865.91;;;-0.44;100.00
39265;BME280;42646;51.910;7.724;2023-01-25T08:17:58;102866.75;;;-0.42;100.00
39265;BME280;42646;51.910;7.724;2023-01-25T08:20:29;102866.78;;;-0.43;100.00
39265;BME280;42646;51.910;7.724;2023-01-25T08:22:57;102868.53;;;-0.44;100.00
39265;BME280;42646;51.910;7.724;2023-01-25T08:25:24;102861.56;;;-0.45;100.00
39265;BME280;42646;51.910;7.724;2023-01-25T08:27:54;102859.81;;;-0.44;100.00
39265;BME280;42646;51.910;7.724;2023-01-25T08:30:22;102858.06;;;-0.44;100.00
39265;BME280;42646;51.910;7.724;2023-01-25T08:32:49;102858.91;;;-0.42;100.00
39265;BME280;42646;51.910;7.724;2023-01-25T08:35:17;102859.78;;;-0.40;100.00
39265;BME280;42646;51.910;7.724;2023-01-25T08:37:46;102856.25;;;-0.37;100.00
39265;BME280;42646;51.910;7.724;2023-01-25T08:40:14;102857.78;;;-0.12;100.00
39265;BME280;42646;51.910;7.724;2023-01-25T08:42:42;102858.03;;;-0.39;100.00
39265;BME280;42646;51.910;7.724;2023-01-25T08:45:10;102858.09;;;-0.45;100.00
39265;BME280;42646;51.910;7.724;2023-01-25T08:47:37;102852.84;;;-0.44;100.00
39265;BME280;42646;51.910;7.724;2023-01-25T08:50:06;102853.75;;;-0.46;100.00
39265;BME280;42646;51.910;7.724;2023-01-25T08:52:35;102843.28;;;-0.46;100.00
39265;BME280;42646;51.910;7.724;2023-01-25T08:55:04;102849.34;;;-0.44;100.00
39265;BME280;42646;51.910;7.724;2023-01-25T08:57:32;102850.19;;;-0.42;100.00
39265;BME280;42646;51.910;7.724;2023-01-25T09:00:01;102843.25;;;-0.43;100.00
39265;BME280;42646;51.910;7.724;2023-01-25T09:02:29;102845.84;;;-0.43;100.00
39265;BME280;42646;51.910;7.724;2023-01-25T09:04:56;102837.97;;;-0.42;100.00
39265;BME280;42646;51.910;7.724;2023-01-25T09:07:25;102832.75;;;-0.42;100.00
39265;BME280;42646;51.910;7.724;2023-01-25T09:09:53;102831.91;;;-0.41;100.00
39265;BME280;42646;51.910;7.724;2023-01-25T09:12:22;102832.75;;;-0.42;100.00
39265;BME280;42646;51.910;7.724;2023-01-25T09:14:51;102833.63;;;-0.40;100.00
39265;BME280;42646;51.910;7.724;2023-01-25T09:17:20;102834.47;;;-0.38;100.00
39265;BME280;42646;51.910;7.724;2023-01-25T09:19:47;102830.13;;;-0.39;100.00
39265;BME280;42646;51.910;7.724;2023-01-25T09:22:20;102824.03;;;-0.42;100.00
39265;BME280;42646;51.910;7.724;2023-01-25T09:24:48;102831.91;;;-0.41;100.00
39265;BME280;42646;51.910;7.724;2023-01-25T09:27:18;102823.16;;;-0.40;100.00
39265;BME280;42646;51.910;7.724;2023-01-25T09:29:47;102824.06;;;-0.44;100.00
39265;BME280;42646;51.910;7.724;2023-01-25T09:32:27;102816.06;;;-0.30;100.00
39265;BME280;42646;51.910;7.724;2023-01-25T09:35:19;102810.94;;;-0.38;100.00
39265;BME280;42646;51.910;7.724;2023-01-25T09:37:49;102817.97;;;-0.44;100.00
39265;BME280;42646;51.910;7.724;2023-01-25T09:40:20;102809.25;;;-0.45;100.00
39265;BME280;42646;51.910;7.724;2023-01-25T09:42:58;102807.59;;;-0.54;100.00
39265;BME280;42646;51.910;7.724;2023-01-25T09:45:31;102797.16;;;-0.52;100.00
39265;BME280;42646;51.910;7.724;2023-01-25T09:48:02;102797.16;;;-0.52;100.00
39265;BME280;42646;51.910;7.724;2023-01-25T09:50:34;102802.25;;;-0.43;100.00
39265;BME280;42646;51.910;7.724;2023-01-25T09:53:18;102806.59;;;-0.39;100.00
39265;BME280;42646;51.910;7.724;2023-01-25T09:55:51;102800.38;;;-0.27;100.00
39265;BME280;42646;51.910;7.724;2023-01-25T09:58:23;102800.66;;;-0.53;100.00
39265;BME280;42646;51.910;7.724;2023-01-25T10:01:27;102792.88;;;-0.59;100.00
39265;BME280;42646;51.910;7.724;2023-01-25T10:04:12;102796.28;;;-0.56;100.00
39265;BME280;42646;51.910;7.724;2023-01-25T10:06:42;102793.66;;;-0.52;100.00
39265;BME280;42646;51.910;7.724;2023-01-25T10:09:31;102795.34;;;-0.48;100.00
39265;BME280;42646;51.910;7.724;2023-01-25T10:12:05;102796.19;;;-0.45;100.00
39265;BME280;42646;51.910;7.724;2023-01-25T10:14:39;102800.50;;;-0.42;100.00
39265;BME280;42646;51.910;7.724;2023-01-25T10:17:12;102797.03;;;-0.43;100.00
39265;BME280;42646;51.910;7.724;2023-01-25T10:19:48;102788.31;;;-0.42;100.00
39265;BME280;42646;51.910;7.724;2023-01-25T10:22:22;102784.84;;;-0.41;100.00
39265;BME280;42646;51.910;7.724;2023-01-25T10:25:02;102782.19;;;-0.39;100.00
39265;BME280;42646;51.910;7.724;2023-01-25T10:27:39;102776.94;;;-0.38;100.00
39265;BME280;42646;51.910;7.724;2023-01-25T10:30:25;102775.25;;;-0.40;100.00
39265;BME280;42646;51.910;7.724;2023-01-25T10:32:57;102769.09;;;-0.38;100.00
39265;BME280;42646;51.910;7.724;2023-01-25T10:35:26;102769.16;;;-0.41;100.00
39265;BME280;42646;51.910;7.724;2023-01-25T10:38:06;102767.38;;;-0.39;100.00
39265;BME280;42646;51.910;7.724;2023-01-25T10:40:41;102758.69;;;-0.44;100.00
39265;BME280;42646;51.910;7.724;2023-01-25T10:43:16;102756.06;;;-0.42;100.00
39265;BME280;42646;51.910;7.724;2023-01-25T10:45:45;102752.53;;;-0.38;100.00
39265;BME280;42646;51.910;7.724;2023-01-25T10:48:18;102754.25;;;-0.36;100.00
39265;BME280;42646;51.910;7.724;2023-01-25T10:50:49;102742.03;;;-0.34;100.00
39265;BME280;42646;51.910;7.724;2023-01-25T10:53:42;102735.91;;;-0.30;100.00
39265;BME280;42646;51.910;7.724;2023-01-25T10:56:22;102736.75;;;-0.29;100.00
39265;BME280;42646;51.910;7.724;2023-01-25T10:59:04;102729.88;;;-0.38;100.00
39265;BME280;42646;51.910;7.724;2023-01-25T11:01:34;102725.50;;;-0.37;100.00
39265;BME280;42646;51.910;7.724;2023-01-25T11:04:21;102718.53;;;-0.37;100.00
39265;BME280;42646;51.910;7.724;2023-01-25T11:06:49;102715.03;;;-0.34;100.00
39265;BME280;42646;51.910;7.724;2023-01-25T11:09:45;102717.66;;;-0.34;100.00
39265;BME280;42646;51.910;7.724;2023-01-25T11:12:17;102716.78;;;-0.35;100.00
39265;BME280;42646;51.910;7.724;2023-01-25T11:14:48;102710.63;;;-0.32;100.00
39265;BME280;42646;51.910;7.724;2023-01-25T11:17:24;102701.94;;;-0.33;100.00
39265;BME280;42646;51.910;7.724;2023-01-25T11:20:15;102699.31;;;-0.33;100.00
39265;BME280;42646;51.910;7.724;2023-01-25T11:22:52;102701.09;;;-0.35;100.00
39265;BME280;42646;51.910;7.724;2023-01-25T11:25:30;102688.88;;;-0.36;100.00
39265;BME280;42646;51.910;7.724;2023-01-25T11:28:23;102680.19;;;-0.38;100.00
39265;BME280;42646;51.910;7.724;2023-01-25T11:30:52;102672.31;;;-0.35;100.00
39265;BME280;42646;51.910;7.724;2023-01-25T11:33:24;102663.59;;;-0.34;100.00
39265;BME280;42646;51.910;7.724;2023-01-25T11:36:09;102662.69;;;-0.33;100.00
39265;BME280;42646;51.910;7.724;2023-01-25T11:38:50;102658.19;;;-0.21;100.00
39265;BME280;42646;51.910;7.724;2023-01-25T11:41:26;102650.41;;;-0.26;100.00
39265;BME280;42646;51.910;7.724;2023-01-25T11:44:17;102643.44;;;-0.25;100.00
39265;BME280;42646;51.910;7.724;2023-01-25T11:46:58;102636.44;;;-0.25;100.00
39265;BME280;42646;51.910;7.724;2023-01-25T11:49:40;102634.69;;;-0.23;100.00
39265;BME280;42646;51.910;7.724;2023-01-25T11:52:23;102629.38;;;-0.18;100.00
39265;BME280;42646;51.910;7.724;2023-01-25T11:55:03;102624.13;;;-0.15;100.00
39265;BME280;42646;51.910;7.724;2023-01-25T11:57:44;102620.56;;;-0.13;100.00
39265;BME280;42646;51.910;7.724;2023-01-25T12:00:25;102618.00;;;-0.14;100.00
39265;BME280;42646;51.910;7.724;2023-01-25T12:03:39;102610.16;;;-0.14;100.00
39265;BME280;42646;51.910;7.724;2023-01-25T12:06:17;102594.41;;;-0.13;100.00
39265;BME280;42646;51.910;7.724;2023-01-25T12:09:18;102591.88;;;-0.16;100.00
39265;BME280;42646;51.910;7.724;2023-01-25T12:12:03;102582.25;;;-0.15;99.91
39265;BME280;42646;51.910;7.724;2023-01-25T12:14:45;102568.25;;;-0.13;100.00
39265;BME280;42646;51.910;7.724;2023-01-25T12:17:26;102559.59;;;-0.15;100.00
39265;BME280;42646;51.910;7.724;2023-01-25T12:20:10;102561.38;;;-0.17;99.89
39265;BME280;42646;51.910;7.724;2023-01-25T12:23:00;102560.50;;;-0.19;99.88
39265;BME280;42646;51.910;7.724;2023-01-25T12:25:41;102550.91;;;-0.17;99.77
39265;BME280;42646;51.910;7.724;2023-01-25T12:28:14;102554.31;;;-0.12;100.00
39265;BME280;42646;51.910;7.724;2023-01-25T12:30:50;102537.63;;;-0.06;99.71
39265;BME280;42646;51.910;7.724;2023-01-25T12:33:27;102529.09;;;-0.16;99.83
39265;BME280;42646;51.910;7.724;2023-01-25T12:36:03;102515.09;;;-0.13;99.55
39265;BME280;42646;51.910;7.724;2023-01-25T12:38:36;102499.44;;;-0.15;99.90
39265;BME280;42646;51.910;7.724;2023-01-25T12:41:19;102495.09;;;-0.16;100.00
39265;BME280;42646;51.910;7.724;2023-01-25T12:43:53;102485.47;;;-0.14;100.00
39265;BME280;42646;51.910;7.724;2023-01-25T12:46:27;102484.53;;;-0.10;100.00
39265;BME280;42646;51.910;7.724;2023-01-25T12:49:00;102477.56;;;-0.12;99.99
39265;BME280;42646;51.910;7.724;2023-01-25T12:51:34;102473.19;;;-0.10;100.00
39265;BME280;42646;51.910;7.724;2023-01-25T12:54:10;102463.56;;;-0.08;100.00
39265;BME280;42646;51.910;7.724;2023-01-25T12:56:46;102470.47;;;-0.04;100.00
39265;BME280;42646;51.910;7.724;2023-01-25T12:59:19;102464.44;;;-0.08;100.00
39265;BME280;42646;51.910;7.724;2023-01-25T13:01:57;102458.34;;;-0.08;100.00
39265;BME280;42646;51.910;7.724;2023-01-25T13:04:43;102448.72;;;-0.08;100.00
39265;BME280;42646;51.910;7.724;2023-01-25T13:07:21;102449.63;;;-0.09;100.00
39265;BME280;42646;51.910;7.724;2023-01-25T13:09:56;102453.88;;;-0.03;99.89
39265;BME280;42646;51.910;7.724;2023-01-25T13:12:27;102445.25;;;-0.08;99.86
39265;BME280;42646;51.910;7.724;2023-01-25T13:14:55;102445.31;;;-0.11;99.23
39265;BME280;42646;51.910;7.724;2023-01-25T13:17:28;102434.00;;;-0.12;99.60
39265;BME280;42646;51.910;7.724;2023-01-25T13:20:01;102420.88;;;-0.10;99.36